Latest Weather Observations for Tennant Creek

IDD60801

Issued at 10:21 am CST Tuesday 20 October 2020 (issued every 10 minutes, with the page automatically refreshed every 10 minutes)

About weather observations | Map of weather stations | Latest weather observations for NT | Other Formats
Station Details ID: 015135 Name: TENNANT CREEK AIRPORT Lat: -19.64 Lon: 134.18 Height: 375.7 m
Data from the previous 72 hours. | See also: Recent months at Tennant Creek
Date/Time
CST
Temp
°C
App
Temp
°C
Dew
Point
°C
Rel
Hum
%
Delta-T
°C
Wind Press
QNH
hPa
Press
MSL
hPa
Rain since
9am
mm
Dir  Spd
km/h
Gust
km/h
Spd
kts
Gust
kts
20/10:00am 32.4 27.7 5.1 18 14.7 E 19 32 10 17 1014.3 1011.8 0.0
20/09:30am 32.0 26.9 6.2 20 14.1 E 22 30 12 16 1014.5 1012.0 0.0
20/09:00am 31.1 27.2 6.9 22 13.3 ESE 17 26 9 14 1014.9 1012.3 0.6
20/08:30am 29.7 25.3 6.4 23 12.6 ESE 19 28 10 15 1014.5 1012.0 0.6
20/08:00am 29.5 24.0 7.4 25 12.1 E 26 33 14 18 1013.8 1011.3 0.4
20/07:30am 28.1 22.4 6.8 26 11.5 ENE 26 32 14 17 1013.1 1010.5 0.4
20/07:00am 27.3 21.3 7.2 28 10.9 E 28 33 15 18 1012.5 1009.9 0.4
20/06:30am 26.5 22.3 7.5 30 10.3 E 19 24 10 13 1012.3 1009.7 0.4
20/06:00am 26.6 22.4 8.1 31 10.1 E 20 26 11 14 1011.9 1009.4 0.4
20/05:30am 27.2 22.6 8.1 30 10.5 E 22 32 12 17 1011.7 1009.2 0.4
20/05:00am 27.7 22.4 8.6 30 10.6 E 26 32 14 17 1011.4 1008.9 0.4
20/04:30am 28.1 24.1 8.9 30 10.7 E 20 32 11 17 1011.6 1009.1 0.4
20/04:00am 28.5 23.8 9.2 30 10.9 E 24 30 13 16 1010.9 1008.3 0.4
20/03:30am 28.9 24.4 10.1 31 10.8 ESE 24 28 13 15 1010.8 1008.2 0.4
20/03:00am 29.4 25.2 11.0 32 10.7 ESE 24 30 13 16 1010.7 1008.1 0.4
20/02:30am 29.8 26.6 11.8 33 10.6 E 20 28 11 15 1010.7 1008.1 0.4
20/02:00am 30.4 28.1 11.9 32 11.0 E 15 22 8 12 1010.8 1008.2 0.4
20/01:30am 30.6 28.3 13.0 34 10.6 ENE 17 22 9 12 1010.9 1008.3 0.4
20/01:00am 30.9 28.3 13.2 34 10.7 ESE 19 28 10 15 1010.7 1008.1 0.4
20/12:30am 30.9 29.1 13.2 34 10.7 SE 15 20 8 11 1010.9 1008.3 0.4
20/12:00am 31.1 29.6 14.3 36 10.4 ESE 15 17 8 9 1011.0 1008.4 0.4
 
Date/Time
CST
Temp
°C
App
Temp
°C
Dew
Point
°C
Rel
Hum
%
Delta-T
°C
Wind Press
QNH
hPa
Press
MSL
hPa
Rain since
9am
mm
Dir  Spd
km/h
Gust
km/h
Spd
kts
Gust
kts
19/11:30pm 31.3 30.1 14.0 35 10.6 ESE 13 17 7 9 1011.3 1008.8 0.4
19/11:00pm 31.4 29.5 14.1 35 10.7 ESE 17 20 9 11 1011.6 1009.1 0.4
19/10:30pm 30.4 28.3 15.3 40 9.4 ESE 20 26 11 14 1011.6 1009.1 0.4
19/10:00pm 27.4 23.9 16.4 51 6.9 S 30 43 16 23 1011.9 1009.4 0.4
19/09:55pm 28.3 26.0 15.6 46 7.9 SSW 22 39 12 21 1011.9 1009.4 0.0
19/09:30pm 33.5 32.2 11.4 26 13.2 NNE 9 13 5 7 1011.2 1008.7 0.0
19/09:00pm 33.8 31.7 11.0 25 13.5 NNE 13 17 7 9 1010.7 1008.1 0.0
19/08:30pm 34.0 31.5 11.2 25 13.6 NE 15 20 8 11 1010.4 1007.8 0.0
19/08:00pm 34.7 32.4 10.5 23 14.3 ENE 13 19 7 10 1010.2 1007.6 0.0
19/07:30pm 35.3 33.4 10.4 22 14.7 ESE 11 15 6 8 1009.8 1007.2 0.0
19/07:00pm 35.6 33.5 9.9 21 15.1 SE 11 13 6 7 1009.5 1006.9 0.0
19/06:30pm 35.8 34.2 10.1 21 15.2 ESE 9 13 5 7 1009.1 1006.6 0.0
19/06:00pm 36.2 36.0 8.9 19 15.9 CALM 0 0 0 0 1008.7 1006.2 0.0
19/05:30pm 36.6 36.1 9.2 19 16.0 N 2 7 1 4 1008.5 1005.9 0.0
19/05:00pm 36.8 35.0 9.4 19 16.1 NNW 9 13 5 7 1008.3 1005.7 0.0
19/04:30pm 36.8 34.2 9.4 19 16.1 W 13 19 7 10 1008.2 1005.6 0.0
19/04:00pm 37.3 34.6 9.0 18 16.5 ENE 13 22 7 12 1008.3 1005.7 0.0
19/03:30pm 37.0 35.6 9.6 19 16.2 NNW 7 17 4 9 1008.6 1006.0 0.0
19/03:00pm 37.3 35.0 9.0 18 16.6 W 11 20 6 11 1008.8 1006.3 0.0
19/02:30pm 37.9 35.6 10.3 19 16.5 W 13 20 7 11 1009.3 1006.7 0.0
19/02:00pm 36.3 34.6 9.8 20 15.6 NW 9 20 5 11 1009.7 1007.1 0.0
19/01:30pm 36.5 34.8 9.9 20 15.7 E 9 15 5 8 1010.3 1007.7 0.0
19/01:00pm 37.9 35.8 11.1 20 16.2 NNW 13 20 7 11 1010.9 1008.3 0.0
19/12:30pm 36.5 34.8 11.3 22 15.2 N 11 20 6 11 1011.4 1008.9 0.0
19/12:00pm 35.9 33.7 10.9 22 14.9 E 13 22 7 12 1011.9 1009.4 0.0
19/11:30am 35.5 33.6 10.5 22 14.8 N 11 24 6 13 1012.6 1010.0 0.0
19/11:00am 34.9 32.3 10.7 23 14.4 N 15 26 8 14 1013.0 1010.4 0.0
19/10:30am 34.0 31.2 9.9 23 14.1 NE 15 28 8 15 1013.3 1010.7 0.0
19/10:00am 33.0 29.2 9.7 24 13.5 ENE 20 30 11 16 1013.6 1011.1 0.0
19/09:30am 32.4 27.2 10.4 26 12.9 ENE 28 35 15 19 1013.7 1011.2 0.0
19/09:00am 31.4 25.4 10.2 27 12.3 ENE 32 39 17 21 1013.8 1011.3 0.0
19/08:30am 30.8 24.6 10.2 28 11.9 ENE 33 41 18 22 1013.8 1011.3 0.0
19/08:00am 29.9 23.9 10.9 31 11.1 E 33 41 18 22 1013.8 1011.3 0.0
19/07:30am 29.1 23.3 10.7 32 10.6 E 32 43 17 23 1013.4 1010.8 0.0
19/07:00am 28.3 22.9 10.9 34 10.1 E 30 41 16 22 1013.0 1010.4 0.0
19/06:30am 27.9 23.3 11.0 35 9.8 E 26 37 14 20 1012.9 1010.3 0.0
19/06:00am 28.2 23.2 10.9 34 10.0 E 28 33 15 18 1012.6 1010.0 0.0
19/05:30am 28.7 23.7 10.8 33 10.4 E 28 35 15 19 1012.4 1009.8 0.0
19/05:00am 28.8 23.8 10.9 33 10.4 ESE 28 35 15 19 1011.7 1009.2 0.0
19/04:30am 29.0 23.9 10.6 32 10.6 ESE 28 41 15 22 1011.5 1009.0 0.0
19/04:00am 29.2 24.9 10.8 32 10.7 ESE 24 35 13 19 1011.3 1008.8 0.0
19/03:30am 29.1 24.7 10.3 31 10.8 ESE 24 32 13 17 1011.0 1008.4 0.0
19/03:00am 29.0 26.0 10.6 32 10.6 SE 17 22 9 12 1011.1 1008.6 0.0
19/02:30am 28.5 26.9 11.6 35 9.9 SE 11 15 6 8 1011.2 1008.7 0.0
19/02:00am 27.6 24.8 11.2 36 9.5 SSE 17 22 9 12 1011.0 1008.4 0.0
19/01:30am 28.9 27.1 11.0 33 10.4 ESE 11 15 6 8 1010.9 1008.3 0.0
19/01:00am 28.9 28.0 11.5 34 10.2 ENE 7 9 4 5 1011.1 1008.6 0.0
19/12:30am 29.2 28.0 11.7 34 10.3 ENE 9 9 5 5 1011.3 1008.8 0.0
19/12:00am 29.3 27.9 10.9 32 10.7 NE 9 11 5 6 1011.4 1008.9 0.0
 
Date/Time
CST
Temp
°C
App
Temp
°C
Dew
Point
°C
Rel
Hum
%
Delta-T
°C
Wind Press
QNH
hPa
Press
MSL
hPa
Rain since
9am
mm
Dir  Spd
km/h
Gust
km/h
Spd
kts
Gust
kts
18/11:30pm 29.6 27.9 11.2 32 10.8 NNE 11 11 6 6 1011.4 1008.9 0.0
18/11:00pm 30.3 28.5 10.8 30 11.4 NE 11 13 6 7 1011.5 1009.0 0.0
18/10:30pm 30.4 28.6 10.9 30 11.4 NNE 11 11 6 6 1011.5 1009.0 0.0
18/10:00pm 29.3 28.7 13.5 38 9.6 NE 9 11 5 6 1011.3 1008.8 0.0
18/09:30pm 29.6 29.8 14.2 39 9.4 NE 6 7 3 4 1011.2 1008.7 0.0
18/09:00pm 30.1 29.6 12.1 33 10.7 ENE 6 7 3 4 1011.0 1008.4 0.0
18/08:30pm 31.0 31.0 13.7 34 10.6 ENE 6 7 3 4 1010.8 1008.2 0.0
18/08:00pm 31.5 31.5 12.3 31 11.5 ENE 4 6 2 3 1010.6 1008.0 0.0
18/07:30pm 33.5 32.3 10.2 24 13.7 E 7 7 4 4 1010.4 1007.8 0.0
18/07:00pm 34.3 33.1 10.2 23 14.2 E 7 9 4 5 1010.1 1007.5 0.0
18/06:30pm 35.0 32.8 9.4 21 14.9 E 11 13 6 7 1009.8 1007.2 0.0
18/06:00pm 36.1 34.9 9.6 20 15.6 SE 6 9 3 5 1009.6 1007.0 0.0
18/05:30pm 36.3 35.2 9.8 20 15.6 ESE 6 9 3 5 1009.4 1006.8 0.0
18/05:00pm 36.3 35.0 9.8 20 15.6 NNE 7 17 4 9 1009.4 1006.8 0.0
18/04:30pm 36.5 35.2 9.9 20 15.7 ESE 7 13 4 7 1009.6 1007.0 0.0
18/04:00pm 36.7 35.4 10.1 20 15.8 SSW 7 11 4 6 1009.8 1007.2 0.0
18/03:30pm 36.0 34.6 9.5 20 15.5 SSE 7 13 4 7 1010.0 1007.4 0.0
18/03:00pm 35.8 33.8 10.1 21 15.2 ESE 11 17 6 9 1010.4 1007.8 0.0
18/02:30pm 36.1 35.3 11.7 23 14.8 E 7 17 4 9 1010.8 1008.2 0.0
18/02:00pm 35.4 32.5 11.1 23 14.5 ENE 17 26 9 14 1011.3 1008.8 0.0
18/01:30pm 35.4 34.6 11.7 23 14.3 ESE 7 13 4 7 1011.7 1009.2 0.0
18/01:00pm 34.3 31.9 11.4 25 13.7 ENE 15 22 8 12 1012.3 1009.7 0.0
18/12:30pm 33.6 32.1 12.0 27 13.0 E 11 17 6 9 1012.8 1010.2 0.0
18/12:00pm 33.4 32.4 12.4 28 12.7 NNE 9 17 5 9 1013.5 1011.0 0.0
18/11:30am 32.8 30.9 12.9 29 12.1 NNE 15 26 8 14 1013.8 1011.3 0.0
18/11:00am 32.7 31.3 13.4 31 11.8 N 13 24 7 13 1014.1 1011.6 0.0
18/10:30am 31.5 30.8 13.3 33 11.1 NNE 9 15 5 8 1014.4 1011.9 0.0
18/10:00am 31.8 29.7 13.5 32 11.2 NNE 17 28 9 15 1014.7 1012.2 0.0
18/09:30am 31.8 30.1 13.5 32 11.2 N 15 28 8 15 1015.0 1012.4 0.0
18/09:00am 31.0 30.0 13.3 34 10.7 NE 11 19 6 10 1014.9 1012.3 0.0
18/08:30am 30.5 28.7 13.3 35 10.4 ESE 15 24 8 13 1014.9 1012.3 0.0
18/08:00am 29.5 25.9 12.9 36 10.0 E 24 30 13 16 1014.6 1012.1 0.0
18/07:30am 28.2 25.2 12.5 37 9.3 E 20 28 11 15 1014.0 1011.5 0.0
18/07:00am 27.7 24.7 12.5 39 9.0 E 20 30 11 16 1013.7 1011.2 0.0
18/06:30am 27.1 24.2 12.3 39 8.7 E 19 28 10 15 1013.3 1010.7 0.0
18/06:00am 26.8 24.6 12.1 40 8.6 ESE 15 19 8 10 1012.9 1010.3 0.0
18/05:30am 26.9 26.0 12.5 40 8.5 ESE 9 11 5 6 1012.6 1010.0 0.0
18/05:00am 27.1 25.9 12.7 41 8.5 ESE 11 17 6 9 1011.8 1009.3 0.0
18/04:30am 27.2 26.0 12.8 41 8.6 SE 11 17 6 9 1011.2 1008.7 0.0
18/04:00am 27.1 25.9 14.1 44 7.9 ENE 13 17 7 9 1010.6 1008.0 0.0
18/03:30am 26.7 26.3 14.1 46 7.6 SE 9 9 5 5 1010.2 1007.6 0.0
18/03:00am 26.8 27.0 14.2 46 7.6 ENE 6 7 3 4 1009.9 1007.3 0.0
18/02:30am 26.7 28.4 15.1 49 7.1 CALM 0 0 0 0 1009.9 1007.3 0.0
18/02:00am 26.2 27.4 15.9 53 6.4 NE 4 6 2 3 1010.1 1007.5 0.0
18/01:30am 26.7 28.5 15.4 50 7.0 CALM 0 0 0 0 1010.2 1007.6 0.0
18/01:00am 27.0 27.4 15.4 49 7.2 N 7 9 4 5 1010.5 1007.9 0.0
18/12:30am 26.8 28.3 17.6 57 5.9 N 6 7 3 4 1010.7 1008.1 0.0
18/12:00am 27.4 29.6 16.4 51 6.9 CALM 0 0 0 0 1011.1 1008.6 0.0
 
Date/Time
CST
Temp
°C
App
Temp
°C
Dew
Point
°C
Rel
Hum
%
Delta-T
°C
Wind Press
QNH
hPa
Press
MSL
hPa
Rain since
9am
mm
Dir  Spd
km/h
Gust
km/h
Spd
kts
Gust
kts
17/11:30pm 27.6 29.8 16.6 51 6.9 CALM 0 0 0 0 1011.3 1008.8 0.0
17/11:00pm 28.5 29.3 14.7 43 8.5 NNW 4 7 2 4 1011.4 1008.9 0.0
17/10:30pm 28.6 30.5 15.8 45 8.0 CALM 0 6 0 3 1011.4 1008.9 0.0
17/10:00pm 29.5 29.5 13.7 38 9.6 NNW 6 9 3 5 1011.3 1008.8 0.0
17/09:30pm 30.2 30.0 13.5 36 10.2 WNW 7 9 4 5 1010.9 1008.3 0.0
17/09:00pm 31.9 30.7 12.7 31 11.6 NNE 11 13 6 7 1010.6 1008.0 0.0
17/08:30pm 32.6 31.8 12.8 30 12.0 NE 9 13 5 7 1010.4 1007.8 0.0
17/08:00pm 33.3 31.7 12.9 29 12.4 NE 13 17 7 9 1010.1 1007.5 0.0
17/07:30pm 33.6 31.9 12.6 28 12.8 ENE 13 15 7 8 1009.9 1007.3 0.0
17/07:00pm 34.0 32.5 11.8 26 13.3 ENE 11 19 6 10 1009.6 1007.0 0.0
17/06:30pm 34.4 32.1 10.3 23 14.2 NE 13 17 7 9 1009.3 1006.7 0.0
17/06:00pm 34.8 32.0 11.2 24 14.1 NNE 17 24 9 13 1008.9 1006.4 0.0
17/05:30pm 35.1 33.7 12.1 25 14.0 N 11 15 6 8 1008.6 1006.0 0.0
17/05:00pm 35.5 33.2 11.8 24 14.3 NNW 15 19 8 10 1008.3 1005.7 0.0
17/04:30pm 36.2 34.7 11.8 23 14.8 ENE 11 30 6 16 1008.2 1005.6 0.0
17/04:00pm 36.2 34.1 11.1 22 15.1 NE 13 26 7 14 1008.4 1005.8 0.0
17/03:30pm 36.5 35.0 12.0 23 14.9 WNW 11 15 6 8 1008.6 1006.0 0.0
17/03:00pm 35.9 34.7 12.8 25 14.2 NNW 11 17 6 9 1009.1 1006.6 0.0
17/02:30pm 35.4 33.9 13.0 26 13.8 N 13 22 7 12 1009.5 1006.9 0.0
17/02:00pm 35.8 33.4 14.4 27 13.4 NNW 20 30 11 16 1009.8 1007.2 0.0
17/01:30pm 36.8 34.7 14.7 26 14.0 N 19 28 10 15 1010.3 1007.7 0.0
17/01:00pm 35.4 33.5 14.1 28 13.3 NNW 17 30 9 16 1010.8 1008.2 0.0
17/12:30pm 34.6 32.1 14.0 29 12.8 N 20 33 11 18 1011.4 1008.9 0.0
17/12:00pm 33.2 31.0 14.3 32 11.8 N 19 33 10 18 1011.9 1009.4 0.0
17/11:30am 32.9 32.0 15.8 35 10.9 NNW 15 26 8 14 1012.6 1010.0 0.0
17/11:00am 32.9 31.1 15.4 35 11.0 N 19 30 10 16 1013.0 1010.4 0.0
17/10:30am 31.8 29.7 15.3 37 10.4 NNW 20 32 11 17 1013.4 1010.8 0.0

Other formats

Comma delimited format used in spreadsheet applications
http://www.bom.gov.au/fwo/IDD60801/IDD60801.94238.axf

JavaScript Object Notation format (JSON) in row-major order
http://www.bom.gov.au/fwo/IDD60801/IDD60801.94238.json

Data quality

Most of these data are generated automatically and are frequently updated. Quality checks on data are not normally performed. It is possible for incorrect values to appear. Refer to information at About Latest Weather Observations and please check the disclaimer before using these data.